sensor_id;sensor_type;location;lat;lon;timestamp;pressure;altitude;pressure_sealevel;temperature;humidity
24390;BME280;12510;56.468;-3.004;2023-04-02T00:01:17;101411.31;;;9.64;100.00
24390;BME280;12510;56.468;-3.004;2023-04-02T00:06:38;101405.50;;;9.71;100.00
24390;BME280;12510;56.468;-3.004;2023-04-02T00:11:41;101415.75;;;9.63;100.00
24390;BME280;12510;56.468;-3.004;2023-04-02T00:14:29;101414.22;;;10.67;100.00
24390;BME280;12510;56.468;-3.004;2023-04-02T00:16:59;101410.59;;;12.24;100.00
24390;BME280;12510;56.468;-3.004;2023-04-02T00:21:52;101412.78;;;12.19;100.00
24390;BME280;12510;56.468;-3.004;2023-04-02T00:24:20;101415.88;;;12.24;100.00
24390;BME280;12510;56.468;-3.004;2023-04-02T00:26:51;101422.91;;;12.14;100.00
24390;BME280;12510;56.468;-3.004;2023-04-02T00:29:19;101422.78;;;12.15;100.00
24390;BME280;12510;56.468;-3.004;2023-04-02T00:31:50;101427.97;;;12.05;100.00
24390;BME280;12510;56.468;-3.004;2023-04-02T00:34:37;101420.28;;;12.02;100.00
24390;BME280;12510;56.468;-3.004;2023-04-02T00:37:04;101421.88;;;11.94;100.00
24390;BME280;12510;56.468;-3.004;2023-04-02T00:39:37;101420.25;;;12.14;100.00
24390;BME280;12510;56.468;-3.004;2023-04-02T00:42:10;101431.78;;;12.13;100.00
24390;BME280;12510;56.468;-3.004;2023-04-02T00:44:40;101433.69;;;12.11;100.00
24390;BME280;12510;56.468;-3.004;2023-04-02T00:47:19;101435.25;;;12.13;100.00
24390;BME280;12510;56.468;-3.004;2023-04-02T00:49:49;101433.75;;;11.99;100.00
24390;BME280;12510;56.468;-3.004;2023-04-02T00:52:23;101437.09;;;12.01;100.00
24390;BME280;12510;56.468;-3.004;2023-04-02T00:54:58;101446.44;;;12.05;100.00
24390;BME280;12510;56.468;-3.004;2023-04-02T00:57:26;101442.38;;;12.01;100.00
24390;BME280;12510;56.468;-3.004;2023-04-02T01:05:46;101449.47;;;12.01;100.00
24390;BME280;12510;56.468;-3.004;2023-04-02T01:17:17;101465.25;;;12.12;100.00
24390;BME280;12510;56.468;-3.004;2023-04-02T01:23:02;101471.16;;;11.93;100.00
24390;BME280;12510;56.468;-3.004;2023-04-02T01:25:42;101470.13;;;11.96;100.00
24390;BME280;12510;56.468;-3.004;2023-04-02T01:28:31;101478.63;;;11.99;100.00
24390;BME280;12510;56.468;-3.004;2023-04-02T01:31:01;101474.66;;;12.05;100.00
24390;BME280;12510;56.468;-3.004;2023-04-02T01:33:32;101467.06;;;12.12;100.00
24390;BME280;12510;56.468;-3.004;2023-04-02T01:36:10;101475.72;;;12.14;100.00
24390;BME280;12510;56.468;-3.004;2023-04-02T01:38:40;101478.84;;;12.07;100.00
24390;BME280;12510;56.468;-3.004;2023-04-02T01:41:33;101481.34;;;12.09;100.00
24390;BME280;12510;56.468;-3.004;2023-04-02T01:44:26;101484.06;;;12.19;100.00
24390;BME280;12510;56.468;-3.004;2023-04-02T01:46:54;101484.72;;;12.11;100.00
24390;BME280;12510;56.468;-3.004;2023-04-02T01:49:23;101490.34;;;12.18;100.00
24390;BME280;12510;56.468;-3.004;2023-04-02T01:51:53;101493.72;;;12.09;100.00
24390;BME280;12510;56.468;-3.004;2023-04-02T01:54:22;101501.25;;;12.13;100.00
24390;BME280;12510;56.468;-3.004;2023-04-02T01:56:49;101501.66;;;12.09;100.00
24390;BME280;12510;56.468;-3.004;2023-04-02T01:59:19;101500.69;;;12.10;100.00
24390;BME280;12510;56.468;-3.004;2023-04-02T02:02:00;101505.63;;;12.03;100.00
24390;BME280;12510;56.468;-3.004;2023-04-02T02:04:30;101504.53;;;11.94;100.00
24390;BME280;12510;56.468;-3.004;2023-04-02T02:06:58;101507.06;;;11.96;100.00
24390;BME280;12510;56.468;-3.004;2023-04-02T02:09:32;101514.03;;;11.74;100.00
24390;BME280;12510;56.468;-3.004;2023-04-02T02:12:01;101513.53;;;11.91;100.00
24390;BME280;12510;56.468;-3.004;2023-04-02T02:14:29;101519.31;;;11.97;100.00
24390;BME280;12510;56.468;-3.004;2023-04-02T02:16:59;101519.19;;;11.98;100.00
24390;BME280;12510;56.468;-3.004;2023-04-02T02:19:46;101523.97;;;11.93;100.00
24390;BME280;12510;56.468;-3.004;2023-04-02T02:22:27;101524.34;;;11.88;100.00
24390;BME280;12510;56.468;-3.004;2023-04-02T02:24:57;101525.03;;;11.90;100.00
24390;BME280;12510;56.468;-3.004;2023-04-02T02:30:08;101535.97;;;11.97;100.00
24390;BME280;12510;56.468;-3.004;2023-04-02T02:32:45;101541.13;;;12.10;100.00
24390;BME280;12510;56.468;-3.004;2023-04-02T02:35:32;101535.72;;;12.12;100.00
24390;BME280;12510;56.468;-3.004;2023-04-02T02:40:52;101545.06;;;12.16;100.00
24390;BME280;12510;56.468;-3.004;2023-04-02T02:43:20;101542.69;;;12.13;100.00
24390;BME280;12510;56.468;-3.004;2023-04-02T02:45:47;101547.69;;;12.16;100.00
24390;BME280;12510;56.468;-3.004;2023-04-02T02:48:18;101554.28;;;12.21;100.00
24390;BME280;12510;56.468;-3.004;2023-04-02T02:50:47;101558.47;;;12.24;100.00
24390;BME280;12510;56.468;-3.004;2023-04-02T02:53:19;101565.34;;;12.15;100.00
24390;BME280;12510;56.468;-3.004;2023-04-02T02:55:49;101570.63;;;12.15;100.00
24390;BME280;12510;56.468;-3.004;2023-04-02T02:58:28;101577.69;;;12.15;100.00
24390;BME280;12510;56.468;-3.004;2023-04-02T03:01:07;101574.84;;;12.18;100.00
24390;BME280;12510;56.468;-3.004;2023-04-02T03:03:36;101573.50;;;12.12;100.00
24390;BME280;12510;56.468;-3.004;2023-04-02T03:06:09;101585.06;;;12.11;100.00
24390;BME280;12510;56.468;-3.004;2023-04-02T03:12:37;101584.13;;;12.45;100.00
24390;BME280;12510;56.468;-3.004;2023-04-02T03:18:17;101588.41;;;12.46;100.00
24390;BME280;12510;56.468;-3.004;2023-04-02T03:23:26;101586.69;;;12.23;100.00
24390;BME280;12510;56.468;-3.004;2023-04-02T03:28:45;101602.41;;;12.36;100.00
24390;BME280;12510;56.468;-3.004;2023-04-02T03:31:26;101609.47;;;12.36;100.00
24390;BME280;12510;56.468;-3.004;2023-04-02T03:33:58;101608.88;;;12.32;100.00
24390;BME280;12510;56.468;-3.004;2023-04-02T03:36:34;101623.53;;;12.25;100.00
24390;BME280;12510;56.468;-3.004;2023-04-02T03:39:20;101623.06;;;12.31;100.00
24390;BME280;12510;56.468;-3.004;2023-04-02T03:41:58;101616.19;;;12.40;100.00
24390;BME280;12510;56.468;-3.004;2023-04-02T03:44:32;101621.44;;;12.51;100.00
24390;BME280;12510;56.468;-3.004;2023-04-02T03:47:08;101631.91;;;12.41;100.00
24390;BME280;12510;56.468;-3.004;2023-04-02T03:50:00;101630.25;;;12.29;100.00
24390;BME280;12510;56.468;-3.004;2023-04-02T03:52:30;101632.28;;;12.37;100.00
24390;BME280;12510;56.468;-3.004;2023-04-02T03:55:01;101631.47;;;12.36;100.00
24390;BME280;12510;56.468;-3.004;2023-04-02T03:57:40;101639.59;;;12.45;100.00
24390;BME280;12510;56.468;-3.004;2023-04-02T04:00:29;101626.53;;;12.43;100.00
24390;BME280;12510;56.468;-3.004;2023-04-02T04:03:01;101631.88;;;12.53;100.00
24390;BME280;12510;56.468;-3.004;2023-04-02T04:05:34;101627.25;;;12.22;100.00
24390;BME280;12510;56.468;-3.004;2023-04-02T04:08:06;101633.75;;;12.18;100.00
24390;BME280;12510;56.468;-3.004;2023-04-02T04:10:34;101634.50;;;12.20;100.00
24390;BME280;12510;56.468;-3.004;2023-04-02T04:13:07;101645.75;;;12.22;100.00
24390;BME280;12510;56.468;-3.004;2023-04-02T04:15:53;101644.66;;;12.25;100.00
24390;BME280;12510;56.468;-3.004;2023-04-02T04:18:57;101649.47;;;12.20;100.00
24390;BME280;12510;56.468;-3.004;2023-04-02T04:21:30;101649.84;;;12.15;100.00
24390;BME280;12510;56.468;-3.004;2023-04-02T04:24:17;101652.50;;;12.15;100.00
24390;BME280;12510;56.468;-3.004;2023-04-02T04:27:01;101654.91;;;12.07;100.00
24390;BME280;12510;56.468;-3.004;2023-04-02T04:29:48;101654.88;;;11.84;100.00
24390;BME280;12510;56.468;-3.004;2023-04-02T04:34:58;101664.63;;;11.95;100.00
24390;BME280;12510;56.468;-3.004;2023-04-02T04:37:35;101665.53;;;11.94;100.00
24390;BME280;12510;56.468;-3.004;2023-04-02T04:40:25;101662.47;;;12.00;100.00
24390;BME280;12510;56.468;-3.004;2023-04-02T04:43:00;101660.66;;;12.01;100.00
24390;BME280;12510;56.468;-3.004;2023-04-02T04:45:35;101674.69;;;12.01;100.00
24390;BME280;12510;56.468;-3.004;2023-04-02T04:50:54;101675.41;;;12.03;100.00
24390;BME280;12510;56.468;-3.004;2023-04-02T04:53:26;101688.38;;;11.95;100.00
24390;BME280;12510;56.468;-3.004;2023-04-02T04:55:58;101685.47;;;11.87;100.00
24390;BME280;12510;56.468;-3.004;2023-04-02T04:58:53;101684.78;;;11.96;100.00
24390;BME280;12510;56.468;-3.004;2023-04-02T05:01:35;101682.03;;;11.98;100.00
24390;BME280;12510;56.468;-3.004;2023-04-02T05:04:29;101677.69;;;11.97;100.00
24390;BME280;12510;56.468;-3.004;2023-04-02T05:07:06;101688.88;;;12.00;100.00
24390;BME280;12510;56.468;-3.004;2023-04-02T05:10:05;101692.44;;;12.11;100.00
24390;BME280;12510;56.468;-3.004;2023-04-02T05:13:02;101689.31;;;11.94;100.00
24390;BME280;12510;56.468;-3.004;2023-04-02T05:18:50;101694.16;;;12.00;100.00
24390;BME280;12510;56.468;-3.004;2023-04-02T05:21:26;101702.00;;;11.89;100.00
24390;BME280;12510;56.468;-3.004;2023-04-02T05:26:41;101706.31;;;11.79;100.00
24390;BME280;12510;56.468;-3.004;2023-04-02T05:29:21;101702.97;;;11.88;100.00
24390;BME280;12510;56.468;-3.004;2023-04-02T05:34:34;101708.31;;;11.64;100.00
24390;BME280;12510;56.468;-3.004;2023-04-02T05:37:04;101713.28;;;11.80;100.00
24390;BME280;12510;56.468;-3.004;2023-04-02T05:39:31;101720.84;;;11.84;100.00
24390;BME280;12510;56.468;-3.004;2023-04-02T05:42:06;101727.09;;;11.83;100.00
24390;BME280;12510;56.468;-3.004;2023-04-02T05:47:30;101734.31;;;11.93;100.00
24390;BME280;12510;56.468;-3.004;2023-04-02T05:50:09;101733.44;;;11.81;100.00
24390;BME280;12510;56.468;-3.004;2023-04-02T05:52:52;101730.72;;;11.94;100.00
24390;BME280;12510;56.468;-3.004;2023-04-02T05:55:26;101744.19;;;12.02;100.00
24390;BME280;12510;56.468;-3.004;2023-04-02T05:58:03;101742.13;;;12.05;100.00
24390;BME280;12510;56.468;-3.004;2023-04-02T06:06:02;101768.31;;;12.09;100.00
24390;BME280;12510;56.468;-3.004;2023-04-02T06:08:38;101762.78;;;12.12;100.00
24390;BME280;12510;56.468;-3.004;2023-04-02T06:11:10;101763.97;;;11.96;100.00
24390;BME280;12510;56.468;-3.004;2023-04-02T06:13:39;101775.16;;;12.11;100.00
24390;BME280;12510;56.468;-3.004;2023-04-02T06:16:12;101769.41;;;12.40;100.00
24390;BME280;12510;56.468;-3.004;2023-04-02T06:18:40;101770.25;;;12.29;100.00
24390;BME280;12510;56.468;-3.004;2023-04-02T06:21:11;101778.16;;;12.29;100.00
24390;BME280;12510;56.468;-3.004;2023-04-02T06:24:08;101780.09;;;12.38;100.00
24390;BME280;12510;56.468;-3.004;2023-04-02T06:26:40;101784.16;;;12.43;100.00
24390;BME280;12510;56.468;-3.004;2023-04-02T06:29:33;101792.59;;;12.36;100.00
24390;BME280;12510;56.468;-3.004;2023-04-02T06:32:08;101794.63;;;12.33;100.00
24390;BME280;12510;56.468;-3.004;2023-04-02T06:34:40;101792.22;;;12.30;100.00
24390;BME280;12510;56.468;-3.004;2023-04-02T06:37:32;101799.28;;;12.29;100.00
24390;BME280;12510;56.468;-3.004;2023-04-02T06:42:55;101806.72;;;12.24;100.00
24390;BME280;12510;56.468;-3.004;2023-04-02T06:45:37;101810.59;;;12.43;100.00
24390;BME280;12510;56.468;-3.004;2023-04-02T06:48:28;101809.38;;;12.69;100.00
24390;BME280;12510;56.468;-3.004;2023-04-02T06:53:32;101809.75;;;12.87;100.00
24390;BME280;12510;56.468;-3.004;2023-04-02T06:56:45;101806.81;;;13.02;100.00
24390;BME280;12510;56.468;-3.004;2023-04-02T06:58:53;101810.56;;;12.88;100.00
24390;BME280;12510;56.468;-3.004;2023-04-02T07:01:27;101820.53;;;10.84;100.00
24390;BME280;12510;56.468;-3.004;2023-04-02T07:03:55;101815.63;;;12.80;100.00
24390;BME280;12510;56.468;-3.004;2023-04-02T07:06:33;101811.53;;;12.98;100.00
24390;BME280;12510;56.468;-3.004;2023-04-02T07:09:01;101837.34;;;10.94;100.00
24390;BME280;12510;56.468;-3.004;2023-04-02T07:11:27;101832.69;;;10.35;100.00
24390;BME280;12510;56.468;-3.004;2023-04-02T07:13:58;101843.13;;;10.62;100.00
24390;BME280;12510;56.468;-3.004;2023-04-02T07:16:26;101842.25;;;10.49;100.00
24390;BME280;12510;56.468;-3.004;2023-04-02T07:18:54;101853.63;;;10.36;100.00
24390;BME280;12510;56.468;-3.004;2023-04-02T07:21:21;101846.50;;;10.38;100.00
24390;BME280;12510;56.468;-3.004;2023-04-02T07:23:48;101847.41;;;10.63;100.00
24390;BME280;12510;56.468;-3.004;2023-04-02T07:26:17;101847.53;;;10.75;100.00
24390;BME280;12510;56.468;-3.004;2023-04-02T07:28:44;101852.97;;;10.71;100.00
24390;BME280;12510;56.468;-3.004;2023-04-02T07:31:26;101853.56;;;11.01;100.00
24390;BME280;12510;56.468;-3.004;2023-04-02T07:33:55;101859.44;;;11.17;100.00
24390;BME280;12510;56.468;-3.004;2023-04-02T07:36:23;101849.97;;;11.15;100.00
24390;BME280;12510;56.468;-3.004;2023-04-02T07:38:50;101860.28;;;11.18;100.00
24390;BME280;12510;56.468;-3.004;2023-04-02T07:41:18;101863.28;;;11.37;100.00
24390;BME280;12510;56.468;-3.004;2023-04-02T07:43:44;101860.38;;;11.29;100.00
24390;BME280;12510;56.468;-3.004;2023-04-02T07:46:11;101861.78;;;11.09;100.00
24390;BME280;12510;56.468;-3.004;2023-04-02T07:48:40;101863.19;;;11.26;100.00
24390;BME280;12510;56.468;-3.004;2023-04-02T07:51:22;101871.78;;;11.41;100.00
24390;BME280;12510;56.468;-3.004;2023-04-02T07:53:50;101871.50;;;12.86;100.00
24390;BME280;12510;56.468;-3.004;2023-04-02T07:56:22;101869.91;;;11.67;100.00
24390;BME280;12510;56.468;-3.004;2023-04-02T07:58:49;101864.31;;;11.83;100.00
24390;BME280;12510;56.468;-3.004;2023-04-02T08:03:44;101878.31;;;12.55;100.00
24390;BME280;12510;56.468;-3.004;2023-04-02T08:06:11;101880.44;;;11.91;100.00
24390;BME280;12510;56.468;-3.004;2023-04-02T08:08:38;101882.22;;;12.15;100.00
24390;BME280;12510;56.468;-3.004;2023-04-02T08:11:05;101888.06;;;12.43;100.00
24390;BME280;12510;56.468;-3.004;2023-04-02T08:13:31;101886.88;;;12.12;100.00
24390;BME280;12510;56.468;-3.004;2023-04-02T08:15:59;101895.38;;;12.51;100.00
24390;BME280;12510;56.468;-3.004;2023-04-02T08:18:25;101895.38;;;12.51;100.00
24390;BME280;12510;56.468;-3.004;2023-04-02T08:20:52;101902.25;;;12.65;100.00
24390;BME280;12510;56.468;-3.004;2023-04-02T08:23:19;101903.66;;;12.57;100.00
24390;BME280;12510;56.468;-3.004;2023-04-02T08:25:47;101901.63;;;12.50;100.00
24390;BME280;12510;56.468;-3.004;2023-04-02T08:28:13;101902.97;;;12.09;100.00
24390;BME280;12510;56.468;-3.004;2023-04-02T08:30:40;101910.53;;;11.89;100.00
24390;BME280;12510;56.468;-3.004;2023-04-02T08:33:07;101907.63;;;12.40;100.00
24390;BME280;12510;56.468;-3.004;2023-04-02T08:35:33;101905.38;;;12.70;100.00
24390;BME280;12510;56.468;-3.004;2023-04-02T08:38:00;101900.38;;;14.52;100.00
24390;BME280;12510;56.468;-3.004;2023-04-02T08:40:36;101887.28;;;15.12;100.00
24390;BME280;12510;56.468;-3.004;2023-04-02T08:48:09;101892.47;;;14.83;99.80
24390;BME280;12510;56.468;-3.004;2023-04-02T08:50:39;101893.09;;;15.66;100.00
24390;BME280;12510;56.468;-3.004;2023-04-02T08:53:12;101900.81;;;15.09;98.41
24390;BME280;12510;56.468;-3.004;2023-04-02T09:01:14;101912.09;;;15.52;94.65
24390;BME280;12510;56.468;-3.004;2023-04-02T09:03:48;101909.91;;;15.86;95.69
24390;BME280;12510;56.468;-3.004;2023-04-02T09:06:18;101913.44;;;15.36;93.66
24390;BME280;12510;56.468;-3.004;2023-04-02T09:08:46;101912.66;;;15.55;95.03
24390;BME280;12510;56.468;-3.004;2023-04-02T09:11:52;101911.88;;;15.94;89.33
24390;BME280;12510;56.468;-3.004;2023-04-02T09:14:24;101918.41;;;15.10;94.84
24390;BME280;12510;56.468;-3.004;2023-04-02T09:16:54;101932.91;;;14.54;100.00
24390;BME280;12510;56.468;-3.004;2023-04-02T09:19:36;101934.91;;;15.14;97.86
24390;BME280;12510;56.468;-3.004;2023-04-02T09:22:30;101927.13;;;15.82;96.54
24390;BME280;12510;56.468;-3.004;2023-04-02T09:24:57;101919.81;;;16.33;90.13
24390;BME280;12510;56.468;-3.004;2023-04-02T09:27:26;101926.84;;;16.62;94.67
24390;BME280;12510;56.468;-3.004;2023-04-02T09:30:21;101921.00;;;16.58;86.89
24390;BME280;12510;56.468;-3.004;2023-04-02T09:32:51;101926.94;;;16.23;87.17
24390;BME280;12510;56.468;-3.004;2023-04-02T09:35:22;101941.78;;;16.16;94.32
24390;BME280;12510;56.468;-3.004;2023-04-02T09:41:16;101943.94;;;16.59;91.36
24390;BME280;12510;56.468;-3.004;2023-04-02T09:43:44;101943.38;;;16.66;91.25
24390;BME280;12510;56.468;-3.004;2023-04-02T09:46:22;101957.31;;;16.11;92.05
24390;BME280;12510;56.468;-3.004;2023-04-02T09:48:55;101961.06;;;15.88;91.53
24390;BME280;12510;56.468;-3.004;2023-04-02T09:51:27;101953.81;;;15.90;89.88
24390;BME280;12510;56.468;-3.004;2023-04-02T09:56:30;101960.22;;;15.78;88.78
24390;BME280;12510;56.468;-3.004;2023-04-02T10:04:40;101980.53;;;15.07;93.25
24390;BME280;12510;56.468;-3.004;2023-04-02T10:07:41;101973.09;;;15.83;87.25
24390;BME280;12510;56.468;-3.004;2023-04-02T10:13:03;101975.19;;;16.38;87.76
24390;BME280;12510;56.468;-3.004;2023-04-02T10:15:49;101977.00;;;16.47;86.59
24390;BME280;12510;56.468;-3.004;2023-04-02T10:18:45;101984.84;;;16.09;90.40
24390;BME280;12510;56.468;-3.004;2023-04-02T10:21:25;101972.00;;;16.15;89.87
24390;BME280;12510;56.468;-3.004;2023-04-02T10:23:54;101982.34;;;15.98;91.97
24390;BME280;12510;56.468;-3.004;2023-04-02T10:29:18;101984.84;;;16.58;87.11
24390;BME280;12510;56.468;-3.004;2023-04-02T10:32:05;101986.63;;;16.58;84.21
24390;BME280;12510;56.468;-3.004;2023-04-02T10:34:42;101984.06;;;16.86;86.24
24390;BME280;12510;56.468;-3.004;2023-04-02T10:46:14;101980.31;;;16.79;84.81
24390;BME280;12510;56.468;-3.004;2023-04-02T10:51:59;101989.38;;;16.96;83.24
24390;BME280;12510;56.468;-3.004;2023-04-02T10:54:56;102000.59;;;16.89;80.61
24390;BME280;12510;56.468;-3.004;2023-04-02T10:57:40;102007.59;;;16.81;83.68
24390;BME280;12510;56.468;-3.004;2023-04-02T11:02:49;102000.91;;;17.24;77.66
24390;BME280;12510;56.468;-3.004;2023-04-02T11:05:40;101997.41;;;17.51;70.92
24390;BME280;12510;56.468;-3.004;2023-04-02T11:08:16;102007.31;;;17.31;73.47
24390;BME280;12510;56.468;-3.004;2023-04-02T11:10:48;102004.84;;;16.53;72.78
24390;BME280;12510;56.468;-3.004;2023-04-02T11:13:29;102012.84;;;17.48;74.94
24390;BME280;12510;56.468;-3.004;2023-04-02T11:15:56;102012.31;;;17.90;71.02
24390;BME280;12510;56.468;-3.004;2023-04-02T11:18:31;102007.59;;;17.56;70.59
24390;BME280;12510;56.468;-3.004;2023-04-02T11:24:01;102012.50;;;17.33;68.00
24390;BME280;12510;56.468;-3.004;2023-04-02T11:26:43;102010.41;;;17.82;67.73
24390;BME280;12510;56.468;-3.004;2023-04-02T11:29:19;102025.25;;;18.83;72.83
24390;BME280;12510;56.468;-3.004;2023-04-02T11:31:48;101999.19;;;18.51;65.05
24390;BME280;12510;56.468;-3.004;2023-04-02T11:42:35;102022.09;;;18.35;63.83
24390;BME280;12510;56.468;-3.004;2023-04-02T11:53:04;102022.94;;;18.36;69.19
24390;BME280;12510;56.468;-3.004;2023-04-02T11:55:45;102034.94;;;17.58;70.04
24390;BME280;12510;56.468;-3.004;2023-04-02T12:00:51;102028.09;;;18.37;70.97
24390;BME280;12510;56.468;-3.004;2023-04-02T12:08:57;102034.63;;;18.43;74.07
24390;BME280;12510;56.468;-3.004;2023-04-02T12:11:34;102049.63;;;17.90;72.68
24390;BME280;12510;56.468;-3.004;2023-04-02T12:16:51;102055.22;;;17.97;79.27
24390;BME280;12510;56.468;-3.004;2023-04-02T12:19:18;102066.97;;;17.38;81.54
24390;BME280;12510;56.468;-3.004;2023-04-02T12:21:45;102072.28;;;17.48;83.13
24390;BME280;12510;56.468;-3.004;2023-04-02T12:24:22;102066.84;;;17.68;80.21
24390;BME280;12510;56.468;-3.004;2023-04-02T12:27:13;102074.84;;;17.30;82.71
24390;BME280;12510;56.468;-3.004;2023-04-02T12:29:42;102077.59;;;17.48;86.38
24390;BME280;12510;56.468;-3.004;2023-04-02T12:32:27;102070.03;;;17.43;84.01
24390;BME280;12510;56.468;-3.004;2023-04-02T12:34:56;102077.66;;;17.66;84.08
24390;BME280;12510;56.468;-3.004;2023-04-02T12:37:27;102071.81;;;17.53;79.05
24390;BME280;12510;56.468;-3.004;2023-04-02T12:40:00;102083.34;;;17.43;88.89
24390;BME280;12510;56.468;-3.004;2023-04-02T12:42:33;102074.97;;;17.38;81.78
24390;BME280;12510;56.468;-3.004;2023-04-02T12:45:00;102069.38;;;17.32;79.21
24390;BME280;12510;56.468;-3.004;2023-04-02T12:47:27;102074.09;;;17.00;80.85
24390;BME280;12510;56.468;-3.004;2023-04-02T12:49:56;102072.50;;;17.27;81.52
24390;BME280;12510;56.468;-3.004;2023-04-02T12:52:25;102076.16;;;17.54;81.15
24390;BME280;12510;56.468;-3.004;2023-04-02T12:54:56;102087.50;;;17.84;87.58
24390;BME280;12510;56.468;-3.004;2023-04-02T12:59:57;102073.44;;;18.37;77.64
24390;BME280;12510;56.468;-3.004;2023-04-02T13:02:27;102085.28;;;18.97;88.47
24390;BME280;12510;56.468;-3.004;2023-04-02T13:04:57;102082.78;;;18.05;77.31
24390;BME280;12510;56.468;-3.004;2023-04-02T13:07:31;102082.19;;;18.12;76.43
24390;BME280;12510;56.468;-3.004;2023-04-02T13:10:04;102074.78;;;18.05;74.30
24390;BME280;12510;56.468;-3.004;2023-04-02T13:12:36;102081.59;;;18.18;84.11
24390;BME280;12510;56.468;-3.004;2023-04-02T13:15:17;102062.09;;;18.17;72.58
24390;BME280;12510;56.468;-3.004;2023-04-02T13:17:47;102062.84;;;18.28;70.18
24390;BME280;12510;56.468;-3.004;2023-04-02T13:20:41;102062.09;;;18.35;76.16
24390;BME280;12510;56.468;-3.004;2023-04-02T13:25:52;102083.56;;;17.88;86.95
24390;BME280;12510;56.468;-3.004;2023-04-02T13:28:19;102078.59;;;16.70;81.49
24390;BME280;12510;56.468;-3.004;2023-04-02T13:30:46;102076.63;;;16.72;84.49
24390;BME280;12510;56.468;-3.004;2023-04-02T13:33:13;102080.38;;;17.09;86.65
24390;BME280;12510;56.468;-3.004;2023-04-02T13:35:41;102079.88;;;17.43;88.36
24390;BME280;12510;56.468;-3.004;2023-04-02T13:38:08;102070.91;;;17.34;83.09
24390;BME280;12510;56.468;-3.004;2023-04-02T13:40:35;102075.94;;;16.90;84.96
24390;BME280;12510;56.468;-3.004;2023-04-02T13:43:05;102074.09;;;17.00;82.06
24390;BME280;12510;56.468;-3.004;2023-04-02T13:45:37;102073.72;;;17.33;84.11
24390;BME280;12510;56.468;-3.004;2023-04-02T13:48:04;102072.63;;;17.91;85.70
24390;BME280;12510;56.468;-3.004;2023-04-02T13:50:33;102083.63;;;16.15;82.59
24390;BME280;12510;56.468;-3.004;2023-04-02T13:53:04;102088.63;;;16.08;86.28
24390;BME280;12510;56.468;-3.004;2023-04-02T13:55:36;102083.63;;;16.83;85.79
24390;BME280;12510;56.468;-3.004;2023-04-02T13:58:03;102081.31;;;17.28;87.84
24390;BME280;12510;56.468;-3.004;2023-04-02T14:00:30;102077.44;;;17.12;81.64
24390;BME280;12510;56.468;-3.004;2023-04-02T14:03:06;102081.41;;;16.59;85.05
24390;BME280;12510;56.468;-3.004;2023-04-02T14:08:22;102076.31;;;17.80;83.29
24390;BME280;12510;56.468;-3.004;2023-04-02T14:13:55;102081.09;;;16.82;82.95
24390;BME280;12510;56.468;-3.004;2023-04-02T14:27:27;102085.69;;;17.56;88.38
24390;BME280;12510;56.468;-3.004;2023-04-02T14:35:37;102071.25;;;17.59;78.85
24390;BME280;12510;56.468;-3.004;2023-04-02T14:38:17;102080.91;;;17.22;79.80
24390;BME280;12510;56.468;-3.004;2023-04-02T14:43:59;102072.91;;;17.98;82.43
24390;BME280;12510;56.468;-3.004;2023-04-02T14:46:30;102087.59;;;18.02;77.44
24390;BME280;12510;56.468;-3.004;2023-04-02T14:49:23;102091.63;;;18.24;86.78
24390;BME280;12510;56.468;-3.004;2023-04-02T14:52:03;102094.81;;;18.09;90.90
24390;BME280;12510;56.468;-3.004;2023-04-02T14:54:36;102084.78;;;18.03;79.87
24390;BME280;12510;56.468;-3.004;2023-04-02T14:57:23;102077.59;;;18.04;77.76
24390;BME280;12510;56.468;-3.004;2023-04-02T15:00:19;102076.31;;;17.80;74.02
24390;BME280;12510;56.468;-3.004;2023-04-02T15:05:23;102082.16;;;17.18;80.97
24390;BME280;12510;56.468;-3.004;2023-04-02T15:07:59;102074.88;;;17.58;78.70
24390;BME280;12510;56.468;-3.004;2023-04-02T15:10:29;102074.75;;;17.59;75.54
24390;BME280;12510;56.468;-3.004;2023-04-02T15:12:59;102075.00;;;17.66;76.85
24390;BME280;12510;56.468;-3.004;2023-04-02T15:15:41;102068.75;;;17.10;71.32
24390;BME280;12510;56.468;-3.004;2023-04-02T15:18:16;102075.97;;;17.65;78.45
24390;BME280;12510;56.468;-3.004;2023-04-02T15:23:27;102075.56;;;17.32;73.21
24390;BME280;12510;56.468;-3.004;2023-04-02T15:28:59;102075.97;;;17.28;77.18
24390;BME280;12510;56.468;-3.004;2023-04-02T15:31:27;102087.28;;;16.92;74.94
24390;BME280;12510;56.468;-3.004;2023-04-02T15:40:15;102081.03;;;17.21;78.60
24390;BME280;12510;56.468;-3.004;2023-04-02T15:45:47;102088.63;;;17.16;71.38
24390;BME280;12510;56.468;-3.004;2023-04-02T15:48:29;102101.41;;;17.02;78.22
24390;BME280;12510;56.468;-3.004;2023-04-02T15:51:24;102099.19;;;16.58;74.45
24390;BME280;12510;56.468;-3.004;2023-04-02T16:02:58;102096.50;;;16.49;76.50
24390;BME280;12510;56.468;-3.004;2023-04-02T16:05:31;102089.22;;;16.31;72.50
24390;BME280;12510;56.468;-3.004;2023-04-02T16:08:26;102092.75;;;16.71;76.52
24390;BME280;12510;56.468;-3.004;2023-04-02T16:10:56;102101.00;;;16.48;77.09
24390;BME280;12510;56.468;-3.004;2023-04-02T16:13:31;102109.81;;;16.58;86.97
24390;BME280;12510;56.468;-3.004;2023-04-02T16:16:06;102099.72;;;16.82;77.61
24390;BME280;12510;56.468;-3.004;2023-04-02T16:21:20;102096.63;;;16.86;77.88
24390;BME280;12510;56.468;-3.004;2023-04-02T16:23:47;102103.53;;;16.69;80.40
24390;BME280;12510;56.468;-3.004;2023-04-02T16:31:39;102109.22;;;16.35;79.74
24390;BME280;12510;56.468;-3.004;2023-04-02T16:34:31;102105.06;;;15.82;77.26
24390;BME280;12510;56.468;-3.004;2023-04-02T16:37:12;102099.03;;;16.21;74.94
24390;BME280;12510;56.468;-3.004;2023-04-02T16:42:47;102124.94;;;15.88;81.62
24390;BME280;12510;56.468;-3.004;2023-04-02T16:56:35;102123.69;;;15.09;83.34
24390;BME280;12510;56.468;-3.004;2023-04-02T17:04:44;102144.69;;;14.80;89.94